Terminal Aerodrome Forecast
Issued by NWS Tallahassee, FL

Home | Current Version | Previous Version | Text Only | Print | Product List | Glossary On
Versions: 1 2 3 4 5 6 7 8 9 10 11 12 13 14 15
000
FTUS42 KTAE 302327
TAFTLH
TAF
KTLH 302327Z 3100/3124 22003KT P6SM SCT080 BKN250
     FM311000 23003KT 5SM BR SCT002
     FM311300 26005KT P6SM BKN030
     FM311800 22008KT P6SM VCTS BKN035CB=

USA.gov is the U.S. government's official web portal to all federal, state and local government web resources and services.